createdAt,value
2022-10-18T00:01:09.311Z,101576.63
2022-10-18T00:06:15.119Z,101570.44
2022-10-18T00:08:42.637Z,101570.75
2022-10-18T00:11:10.451Z,101566.28
2022-10-18T00:13:38.690Z,101569.66
2022-10-18T00:16:13.657Z,101563.13
2022-10-18T00:18:42.120Z,101567.28
2022-10-18T00:21:14.703Z,101562.22
2022-10-18T00:23:42.610Z,101567.16
2022-10-18T00:26:20.467Z,101560.03
2022-10-18T00:28:53.183Z,101557.22
2022-10-18T00:31:29.432Z,101562.16
2022-10-18T00:34:11.178Z,101553.09
2022-10-18T00:36:39.469Z,101537.94
2022-10-18T00:39:09.466Z,101545.66
2022-10-18T00:41:38.218Z,101540.94
2022-10-18T00:44:14.349Z,101533.97
2022-10-18T00:47:20.721Z,101536.03
2022-10-18T00:49:56.842Z,101525.56
2022-10-18T00:52:38.398Z,101520.63
2022-10-18T00:55:07.856Z,101526.00
2022-10-18T00:57:36.687Z,101514.00
2022-10-18T01:00:09.878Z,101517.16
2022-10-18T01:02:40.078Z,101509.50
2022-10-18T01:05:08.720Z,101503.47
2022-10-18T01:08:22.065Z,101502.69
2022-10-18T01:11:21.917Z,101512.22
2022-10-18T01:14:23.452Z,101520.28
2022-10-18T01:16:54.172Z,101511.75
2022-10-18T01:19:58.659Z,101516.38
2022-10-18T01:22:42.301Z,101514.63
2022-10-18T01:25:51.229Z,101507.50
2022-10-18T01:29:16.774Z,101503.56
2022-10-18T01:32:10.469Z,101502.94
2022-10-18T01:34:40.548Z,101509.34
2022-10-18T01:37:14.387Z,101496.19
2022-10-18T01:39:46.726Z,101495.38
2022-10-18T01:42:19.711Z,101490.66
2022-10-18T01:44:50.696Z,101487.47
2022-10-18T01:47:19.698Z,101491.31
2022-10-18T01:49:47.425Z,101481.16
2022-10-18T01:52:16.775Z,101487.22
2022-10-18T01:54:49.240Z,101474.88
2022-10-18T01:57:45.860Z,101481.22
2022-10-18T02:00:30.247Z,101472.34
2022-10-18T02:03:30.060Z,101476.94
2022-10-18T02:06:28.964Z,101478.41
2022-10-18T02:09:29.060Z,101471.41
2022-10-18T02:11:58.399Z,101474.75
2022-10-18T02:14:26.869Z,101476.53
2022-10-18T02:17:00.128Z,101480.31
2022-10-18T02:19:40.528Z,101477.94
2022-10-18T02:22:10.878Z,101469.72
2022-10-18T02:24:44.853Z,101466.25
2022-10-18T02:27:13.260Z,101468.50
2022-10-18T02:29:42.725Z,101466.59
2022-10-18T02:32:41.114Z,101461.66
2022-10-18T02:35:19.410Z,101472.44
2022-10-18T02:37:50.220Z,101454.84
2022-10-18T02:40:18.289Z,101461.00
2022-10-18T02:42:51.355Z,101463.25
2022-10-18T02:45:19.089Z,101463.56
2022-10-18T02:47:47.168Z,101459.44
2022-10-18T02:50:15.213Z,101456.41
2022-10-18T02:52:42.937Z,101453.38
2022-10-18T02:55:11.059Z,101449.78
2022-10-18T02:57:38.797Z,101457.84
2022-10-18T03:00:07.141Z,101463.25
2022-10-18T03:02:35.250Z,101461.00
2022-10-18T03:05:02.707Z,101465.63
2022-10-18T03:07:30.826Z,101469.09
2022-10-18T03:09:58.569Z,101474.47
2022-10-18T03:12:26.407Z,101465.63
2022-10-18T03:14:53.853Z,101471.47
2022-10-18T03:17:21.693Z,101478.31
2022-10-18T03:19:49.126Z,101477.81
2022-10-18T03:22:16.874Z,101470.41
2022-10-18T03:24:45.591Z,101475.47
2022-10-18T03:27:13.366Z,101482.66
2022-10-18T03:29:40.827Z,101479.03
2022-10-18T03:32:08.703Z,101477.75
2022-10-18T03:34:36.768Z,101479.19
2022-10-18T03:37:05.600Z,101476.66
2022-10-18T03:39:33.269Z,101478.91
2022-10-18T03:42:00.949Z,101485.88
2022-10-18T03:44:28.561Z,101482.72
2022-10-18T03:46:56.228Z,101481.44
2022-10-18T03:49:23.780Z,101482.22
2022-10-18T03:51:51.518Z,101484.44
2022-10-18T03:54:19.097Z,101495.84
2022-10-18T03:56:46.945Z,101494.28
2022-10-18T03:59:16.791Z,101494.47
2022-10-18T04:01:44.557Z,101494.94
2022-10-18T04:04:12.024Z,101500.19
2022-10-18T04:06:39.829Z,101488.47
2022-10-18T04:09:10.111Z,101495.94
2022-10-18T04:11:38.379Z,101501.47
2022-10-18T04:14:05.931Z,101494.66
2022-10-18T04:16:33.844Z,101485.94
2022-10-18T04:19:01.252Z,101482.66
2022-10-18T04:21:28.962Z,101476.31
2022-10-18T04:23:56.400Z,101472.53
2022-10-18T04:26:24.207Z,101471.09
2022-10-18T04:28:51.818Z,101471.75
2022-10-18T04:31:19.595Z,101474.59
2022-10-18T04:33:47.037Z,101462.25
2022-10-18T04:36:15.022Z,101460.97
2022-10-18T04:38:42.976Z,101465.09
2022-10-18T04:41:11.108Z,101462.09
2022-10-18T04:43:38.646Z,101458.44
2022-10-18T04:46:06.598Z,101456.41
2022-10-18T04:48:34.187Z,101441.22
2022-10-18T04:51:01.924Z,101444.22
2022-10-18T04:53:29.383Z,101441.06
2022-10-18T04:55:57.262Z,101443.44
2022-10-18T04:58:24.837Z,101451.81
2022-10-18T05:00:52.728Z,101450.22
2022-10-18T05:03:20.297Z,101447.53
2022-10-18T05:06:01.704Z,101446.91
2022-10-18T05:08:31.009Z,101447.38
2022-10-18T05:10:59.196Z,101455.28
2022-10-18T05:13:27.089Z,101453.56
2022-10-18T05:15:54.866Z,101447.72
2022-10-18T05:18:22.351Z,101449.91
2022-10-18T05:20:50.033Z,101442.75
2022-10-18T05:23:17.528Z,101454.63
2022-10-18T05:25:45.306Z,101460.31
2022-10-18T05:28:34.058Z,101452.09
2022-10-18T05:31:05.977Z,101454.31
2022-10-18T05:33:34.026Z,101455.56
2022-10-18T05:36:02.114Z,101471.88
2022-10-18T05:38:32.845Z,101462.38
2022-10-18T05:41:04.556Z,101458.28
2022-10-18T05:43:32.035Z,101464.59
2022-10-18T05:46:00.033Z,101458.75
2022-10-18T05:48:27.442Z,101467.44
2022-10-18T05:50:59.541Z,101467.91
2022-10-18T05:53:37.112Z,101467.44
2022-10-18T05:56:07.291Z,101470.13
2022-10-18T05:58:35.372Z,101466.66
2022-10-18T06:01:05.372Z,101470.13
2022-10-18T06:03:33.464Z,101462.84
2022-10-18T06:06:10.802Z,101459.38
2022-10-18T06:08:40.865Z,101450.03
2022-10-18T06:11:14.957Z,101449.41
2022-10-18T06:13:47.919Z,101452.69
2022-10-18T06:16:19.320Z,101453.28
2022-10-18T06:18:53.198Z,101456.06
2022-10-18T06:21:22.552Z,101452.56
2022-10-18T06:23:56.198Z,101449.03
2022-10-18T06:26:25.705Z,101449.44
2022-10-18T06:28:53.312Z,101446.84
2022-10-18T06:31:21.408Z,101454.88
2022-10-18T06:33:49.348Z,101455.44
2022-10-18T06:36:22.087Z,101450.31
2022-10-18T06:38:50.229Z,101447.53
2022-10-18T06:41:19.361Z,101463.47
2022-10-18T06:43:51.303Z,101456.69
2022-10-18T06:46:19.422Z,101462.91
2022-10-18T06:48:47.152Z,101453.75
2022-10-18T06:51:15.429Z,101457.63
2022-10-18T06:53:44.599Z,101450.88
2022-10-18T06:56:21.240Z,101444.59
2022-10-18T06:58:48.964Z,101452.47
2022-10-18T07:01:18.740Z,101455.41
2022-10-18T07:03:48.380Z,101448.69
2022-10-18T07:06:18.766Z,101454.75
2022-10-18T07:08:48.278Z,101464.56
2022-10-18T07:11:19.889Z,101450.06
2022-10-18T07:13:47.418Z,101449.88
2022-10-18T07:16:18.631Z,101448.06
2022-10-18T07:18:50.363Z,101450.53
2022-10-18T07:21:24.697Z,101454.59
2022-10-18T07:23:52.843Z,101446.94
2022-10-18T07:26:30.210Z,101447.81
2022-10-18T07:29:11.651Z,101446.47
2022-10-18T07:31:40.947Z,101443.09
2022-10-18T07:34:11.915Z,101436.69
2022-10-18T07:36:40.557Z,101432.25
2022-10-18T07:39:09.373Z,101438.78
2022-10-18T07:41:37.269Z,101431.31
2022-10-18T07:44:05.372Z,101433.88
2022-10-18T07:46:33.383Z,101436.44
2022-10-18T07:49:00.913Z,101442.19
2022-10-18T07:51:30.917Z,101434.50
2022-10-18T07:53:59.360Z,101434.59
2022-10-18T07:56:27.096Z,101435.47
2022-10-18T07:58:56.637Z,101437.50
2022-10-18T08:01:25.986Z,101431.44
2022-10-18T08:03:54.061Z,101442.00
2022-10-18T08:06:23.385Z,101433.88
2022-10-18T08:08:50.972Z,101423.50
2022-10-18T08:11:25.038Z,101432.94
2022-10-18T08:13:53.975Z,101429.31
2022-10-18T08:16:40.031Z,101434.91
2022-10-18T08:19:07.599Z,101431.94
2022-10-18T08:21:35.334Z,101429.75
2022-10-18T08:24:02.815Z,101426.88
2022-10-18T08:26:30.547Z,101431.75
2022-10-18T08:29:10.634Z,101426.63
2022-10-18T08:31:45.630Z,101430.72
2022-10-18T08:34:18.641Z,101430.09
2022-10-18T08:36:47.480Z,101427.13
2022-10-18T08:39:14.902Z,101413.41
2022-10-18T08:42:17.675Z,101423.00
2022-10-18T08:44:49.470Z,101420.09
2022-10-18T08:47:31.327Z,101427.59
2022-10-18T08:50:14.306Z,101416.91
2022-10-18T08:53:04.794Z,101422.03
2022-10-18T08:55:38.865Z,101422.56
2022-10-18T08:58:26.690Z,101413.00
2022-10-18T09:01:12.658Z,101406.16
2022-10-18T09:04:27.976Z,101403.22
2022-10-18T09:07:20.072Z,101404.53
2022-10-18T09:10:07.160Z,101400.72
2022-10-18T09:12:58.769Z,101399.72
2022-10-18T09:15:45.061Z,101397.13
2022-10-18T09:18:55.476Z,101393.78
2022-10-18T09:21:55.328Z,101394.41
2022-10-18T09:24:39.648Z,101393.47
2022-10-18T09:27:20.243Z,101394.72
2022-10-18T09:30:07.809Z,101394.78
2022-10-18T09:33:14.276Z,101392.56
2022-10-18T09:36:03.296Z,101389.94
2022-10-18T09:38:49.609Z,101386.22
2022-10-18T09:41:42.862Z,101373.88
2022-10-18T09:44:22.222Z,101375.50
2022-10-18T09:47:16.557Z,101369.38
2022-10-18T09:49:51.056Z,101371.06
2022-10-18T09:52:38.846Z,101368.03
2022-10-18T09:55:16.897Z,101360.72
2022-10-18T09:57:54.089Z,101357.69
2022-10-18T10:00:31.461Z,101361.63
2022-10-18T10:03:02.002Z,101354.28
2022-10-18T10:05:29.771Z,101358.25
2022-10-18T10:08:02.244Z,101340.47
2022-10-18T10:10:31.839Z,101331.59
2022-10-18T10:13:16.868Z,101329.72
2022-10-18T10:15:56.358Z,101321.25
2022-10-18T10:18:38.186Z,101331.44
2022-10-18T10:21:15.817Z,101324.44
2022-10-18T10:23:47.448Z,101320.22
2022-10-18T10:26:29.436Z,101316.00
2022-10-18T10:28:57.332Z,101316.81
2022-10-18T10:31:24.971Z,101309.09
2022-10-18T10:34:14.499Z,101301.75
2022-10-18T10:36:52.241Z,101300.63
2022-10-18T10:39:22.749Z,101292.88
2022-10-18T10:41:56.994Z,101286.31
2022-10-18T10:44:36.228Z,101288.72
2022-10-18T10:47:04.831Z,101291.50
2022-10-18T10:49:47.687Z,101273.72
2022-10-18T10:52:28.326Z,101277.28
2022-10-18T10:57:48.417Z,101251.34
2022-10-18T11:00:44.341Z,101254.53
2022-10-18T11:03:33.805Z,101247.59
2022-10-18T11:06:02.116Z,101239.47
2022-10-18T11:08:41.131Z,101241.44
2022-10-18T11:11:26.781Z,101233.31
2022-10-18T11:14:26.207Z,101230.63
2022-10-18T11:17:21.988Z,101222.50
2022-10-18T11:20:09.753Z,101223.69
2022-10-18T11:22:56.890Z,101218.66
2022-10-18T11:25:43.131Z,101213.59
2022-10-18T11:28:40.920Z,101213.63
2022-10-18T11:31:50.501Z,101212.84
2022-10-18T11:34:25.631Z,101207.84
2022-10-18T11:37:47.285Z,101207.84
2022-10-18T11:40:45.161Z,101205.50
2022-10-18T11:43:30.124Z,101194.97
2022-10-18T11:46:13.873Z,101191.41
2022-10-18T11:49:16.673Z,101186.72
2022-10-18T11:52:13.843Z,101186.28
2022-10-18T11:54:57.187Z,101189.75
2022-10-18T11:57:55.643Z,101176.75
2022-10-18T12:00:40.505Z,101178.28
2022-10-18T12:03:38.929Z,101175.91
2022-10-18T12:06:34.062Z,101164.50
2022-10-18T12:09:37.010Z,101159.31
2022-10-18T12:12:28.325Z,101152.56
2022-10-18T12:15:22.825Z,101154.44
2022-10-18T12:18:03.464Z,101148.88
2022-10-18T12:20:50.201Z,101144.44
2022-10-18T12:23:29.647Z,101144.69
2022-10-18T12:26:03.898Z,101139.72
2022-10-18T12:29:00.632Z,101132.06
2022-10-18T12:32:08.841Z,101132.34
2022-10-18T12:34:48.304Z,101132.97
2022-10-18T12:37:36.610Z,101131.22
2022-10-18T12:40:46.606Z,101129.47
2022-10-18T12:43:37.685Z,101121.25
2022-10-18T12:46:13.567Z,101125.00
2022-10-18T12:48:45.750Z,101119.69
2022-10-18T12:51:26.801Z,101113.59
2022-10-18T12:54:02.953Z,101113.47
2022-10-18T12:56:34.199Z,101110.41
2022-10-18T12:59:16.259Z,101102.75
2022-10-18T13:01:53.313Z,101102.25
2022-10-18T13:04:32.422Z,101095.09
2022-10-18T13:07:00.041Z,101103.22
2022-10-18T13:09:36.964Z,101090.69
2022-10-18T13:12:10.627Z,101091.03
2022-10-18T13:15:20.540Z,101092.00
2022-10-18T13:17:57.452Z,101086.31
2022-10-18T13:21:17.805Z,101091.31
2022-10-18T13:24:26.227Z,101083.19
2022-10-18T13:27:34.847Z,101081.75
2022-10-18T13:30:30.054Z,101086.78
2022-10-18T13:33:35.154Z,101075.44
2022-10-18T13:36:23.596Z,101074.22
2022-10-18T13:38:55.545Z,101078.97
2022-10-18T13:41:28.342Z,101068.81
2022-10-18T13:44:30.510Z,101070.03
2022-10-18T13:46:58.271Z,101069.47
2022-10-18T13:50:08.152Z,101069.97
2022-10-18T13:53:16.175Z,101069.84
2022-10-18T13:56:22.021Z,101065.50
2022-10-18T13:59:15.125Z,101056.97
2022-10-18T14:02:30.701Z,101062.63
2022-10-18T14:05:29.391Z,101060.06
2022-10-18T14:08:12.844Z,101056.41
2022-10-18T14:11:11.133Z,101050.09
2022-10-18T14:13:56.419Z,101042.94
2022-10-18T14:16:55.006Z,101036.34
2022-10-18T14:19:47.908Z,101038.72
2022-10-18T14:22:26.973Z,101038.28
2022-10-18T14:24:57.969Z,101033.53
2022-10-18T14:27:29.262Z,101027.22
2022-10-18T14:30:20.585Z,101029.69
2022-10-18T14:32:56.399Z,101030.78
2022-10-18T14:35:33.221Z,101028.44
2022-10-18T14:38:02.576Z,101025.09
2022-10-18T14:40:38.991Z,101026.91
2022-10-18T14:43:15.873Z,101012.75
2022-10-18T14:45:43.749Z,101014.28
2022-10-18T14:48:17.123Z,101009.47
2022-10-18T14:50:59.183Z,101009.75
2022-10-18T14:53:40.186Z,101000.84
2022-10-18T14:56:19.641Z,101000.66
2022-10-18T14:58:47.573Z,100995.13
2022-10-18T15:01:20.275Z,100997.00
2022-10-18T15:03:49.165Z,100985.94
2022-10-18T15:06:20.628Z,100995.22
2022-10-18T15:08:56.353Z,100992.13
2022-10-18T15:11:25.917Z,100994.38
2022-10-18T15:14:06.896Z,101002.81
2022-10-18T15:16:38.404Z,100993.84
2022-10-18T15:19:28.483Z,100990.50
2022-10-18T15:22:30.892Z,100983.28
2022-10-18T15:25:32.083Z,100991.59
2022-10-18T15:28:01.416Z,100989.03
2022-10-18T15:30:36.315Z,100981.56
2022-10-18T15:33:10.124Z,100976.66
2022-10-18T15:35:41.244Z,100969.34
2022-10-18T15:38:25.209Z,100971.22
2022-10-18T15:40:54.217Z,100971.13
2022-10-18T15:43:24.619Z,100965.91
2022-10-18T15:45:55.007Z,100973.53
2022-10-18T15:48:40.232Z,100970.25
2022-10-18T15:51:49.917Z,100971.59
2022-10-18T15:54:29.591Z,100976.03
2022-10-18T15:56:57.522Z,100977.03
2022-10-18T15:59:32.162Z,100988.50
2022-10-18T16:01:59.932Z,100981.75
2022-10-18T16:04:32.521Z,100983.13
2022-10-18T16:07:00.805Z,100977.16
2022-10-18T16:09:29.364Z,100972.44
2022-10-18T16:11:58.296Z,100979.34
2022-10-18T16:14:26.922Z,100980.84
2022-10-18T16:17:03.032Z,100980.44
2022-10-18T16:19:32.247Z,100980.75
2022-10-18T16:22:06.137Z,100982.28
2022-10-18T16:24:34.072Z,100982.25
2022-10-18T16:27:01.782Z,100982.13
2022-10-18T16:29:32.127Z,100983.59
2022-10-18T16:32:01.208Z,100988.13
2022-10-18T16:34:32.140Z,100983.38
2022-10-18T16:36:59.950Z,100988.00
2022-10-18T16:39:28.501Z,100984.44
2022-10-18T16:41:56.389Z,100989.44
2022-10-18T16:44:23.858Z,100983.59
2022-10-18T16:46:53.991Z,100980.06
2022-10-18T16:49:26.756Z,100985.44
2022-10-18T16:51:55.164Z,100985.38
2022-10-18T16:54:23.608Z,100985.38
2022-10-18T16:56:51.373Z,100986.94
2022-10-18T16:59:29.160Z,100985.38
2022-10-18T17:01:57.491Z,100986.16
2022-10-18T17:04:25.248Z,100981.81
2022-10-18T17:06:57.359Z,100976.75
2022-10-18T17:09:25.666Z,100972.81
2022-10-18T17:11:53.660Z,100978.16
2022-10-18T17:14:21.212Z,100981.88
2022-10-18T17:16:53.080Z,100976.31
2022-10-18T17:19:23.549Z,100966.94
2022-10-18T17:21:51.330Z,100980.44
2022-10-18T17:24:18.750Z,100969.53
2022-10-18T17:26:46.505Z,100968.25
2022-10-18T17:29:14.211Z,100974.31
2022-10-18T17:31:42.059Z,100971.56
2022-10-18T17:34:09.584Z,100972.28
2022-10-18T17:36:38.710Z,100966.44
2022-10-18T17:39:06.277Z,100974.16
2022-10-18T17:41:34.001Z,100968.31
2022-10-18T17:44:06.402Z,100969.44
2022-10-18T17:46:34.254Z,100964.03
2022-10-18T17:49:01.686Z,100962.44
2022-10-18T17:51:29.542Z,100962.44
2022-10-18T17:53:57.042Z,100951.63
2022-10-18T17:56:27.120Z,100964.81
2022-10-18T17:58:54.611Z,100961.38
2022-10-18T18:01:23.554Z,100957.03
2022-10-18T18:03:57.485Z,100960.19
2022-10-18T18:06:39.079Z,100952.06
2022-10-18T18:09:13.881Z,100962.16
2022-10-18T18:11:44.007Z,100957.19
2022-10-18T18:14:12.482Z,100959.44
2022-10-18T18:16:44.143Z,100952.53
2022-10-18T18:19:12.611Z,100946.00
2022-10-18T18:21:42.671Z,100943.34
2022-10-18T18:24:11.471Z,100947.97
2022-10-18T18:26:40.718Z,100942.56
2022-10-18T18:29:08.501Z,100943.34
2022-10-18T18:31:40.092Z,100927.09
2022-10-18T18:34:10.411Z,100934.06
2022-10-18T18:36:38.425Z,100928.66
2022-10-18T18:39:06.833Z,100925.53
2022-10-18T18:41:35.033Z,100933.59
2022-10-18T18:44:05.704Z,100930.47
2022-10-18T18:46:38.639Z,100928.06
2022-10-18T18:49:08.077Z,100929.97
2022-10-18T18:51:40.579Z,100928.34
2022-10-18T18:54:10.174Z,100929.84
2022-10-18T18:56:38.684Z,100935.19
2022-10-18T18:59:06.949Z,100929.72
2022-10-18T19:01:37.775Z,100935.84
2022-10-18T19:04:07.444Z,100933.44
2022-10-18T19:06:39.760Z,100926.03
2022-10-18T19:09:19.315Z,100931.03
2022-10-18T19:11:50.754Z,100923.97
2022-10-18T19:16:59.077Z,100914.16
2022-10-18T19:19:29.665Z,100912.22
2022-10-18T19:22:01.054Z,100916.03
2022-10-18T19:24:30.612Z,100919.09
2022-10-18T19:27:40.052Z,100919.91
2022-10-18T19:30:16.042Z,100912.91
2022-10-18T19:32:44.043Z,100917.97
2022-10-18T19:35:11.618Z,100909.94
2022-10-18T19:37:39.469Z,100913.06
2022-10-18T19:40:07.837Z,100900.00
2022-10-18T19:42:37.444Z,100908.94
2022-10-18T19:45:05.762Z,100901.97
2022-10-18T19:47:33.909Z,100892.66
2022-10-18T19:50:02.097Z,100901.47
2022-10-18T19:52:29.948Z,100897.56
2022-10-18T19:54:57.539Z,100899.81
2022-10-18T19:57:25.620Z,100899.38
2022-10-18T19:59:54.382Z,100894.34
2022-10-18T20:02:24.090Z,100895.91
2022-10-18T20:04:51.663Z,100897.41
2022-10-18T20:07:19.432Z,100898.13
2022-10-18T20:09:48.057Z,100888.38
2022-10-18T20:12:15.792Z,100891.03
2022-10-18T20:15:02.138Z,100894.78
2022-10-18T20:18:26.270Z,100893.13
2022-10-18T20:21:40.160Z,100886.47
2022-10-18T20:24:09.479Z,100885.16
2022-10-18T20:26:37.132Z,100886.31
2022-10-18T20:29:05.633Z,100880.47
2022-10-18T20:31:37.219Z,100874.63
2022-10-18T20:34:13.611Z,100878.03
2022-10-18T20:36:43.502Z,100875.34
2022-10-18T20:39:11.327Z,100874.22
2022-10-18T20:41:41.414Z,100869.66
2022-10-18T20:44:16.014Z,100865.81
2022-10-18T20:46:44.668Z,100865.13
2022-10-18T20:49:15.604Z,100862.41
2022-10-18T20:51:43.559Z,100867.38
2022-10-18T20:54:12.720Z,100860.84
2022-10-18T20:56:40.315Z,100854.66
2022-10-18T20:59:10.106Z,100851.59
2022-10-18T21:01:39.276Z,100850.44
2022-10-18T21:04:10.223Z,100852.03
2022-10-18T21:06:44.160Z,100850.09
2022-10-18T21:09:18.933Z,100841.63
2022-10-18T21:11:50.324Z,100842.41
2022-10-18T21:14:22.406Z,100838.50
2022-10-18T21:16:52.854Z,100841.22
2022-10-18T21:19:41.769Z,100827.28
2022-10-18T21:22:09.892Z,100828.75
2022-10-18T21:24:45.932Z,100832.63
2022-10-18T21:28:33.612Z,100825.84
2022-10-18T21:31:19.468Z,100815.19
2022-10-18T21:33:47.682Z,100824.63
2022-10-18T21:36:15.981Z,100819.44
2022-10-18T21:38:46.792Z,100817.72
2022-10-18T21:41:17.597Z,100808.75
2022-10-18T21:43:48.706Z,100812.59
2022-10-18T21:46:18.373Z,100806.41
2022-10-18T21:48:47.882Z,100812.16
2022-10-18T21:51:19.463Z,100802.75
2022-10-18T21:57:25.838Z,100805.72
2022-10-18T21:59:57.777Z,100808.34
2022-10-18T22:02:32.834Z,100799.38
2022-10-18T22:05:18.696Z,100797.38
2022-10-18T22:07:52.625Z,100790.31
2022-10-18T22:10:26.009Z,100775.19
2022-10-18T22:13:15.375Z,100775.09
2022-10-18T22:15:50.411Z,100778.25
2022-10-18T22:18:25.339Z,100769.69
2022-10-18T22:21:23.392Z,100765.97
2022-10-18T22:24:05.571Z,100769.00
2022-10-18T22:26:39.863Z,100765.53
2022-10-18T22:29:21.047Z,100780.16
2022-10-18T22:32:10.597Z,100773.63
2022-10-18T22:34:40.785Z,100782.06
2022-10-18T22:37:08.346Z,100784.34
2022-10-18T22:39:36.057Z,100785.03
2022-10-18T22:42:05.582Z,100790.38
2022-10-18T22:44:36.816Z,100789.06
2022-10-18T22:47:07.981Z,100798.66
2022-10-18T22:49:35.761Z,100797.78
2022-10-18T22:52:03.258Z,100796.13
2022-10-18T22:54:32.442Z,100801.00
2022-10-18T22:57:05.537Z,100798.13
2022-10-18T22:59:39.453Z,100791.00
2022-10-18T23:02:15.065Z,100790.81
2022-10-18T23:04:51.156Z,100789.88
2022-10-18T23:07:27.338Z,100793.50
2022-10-18T23:10:02.148Z,100784.78
2022-10-18T23:12:35.973Z,100789.91
2022-10-18T23:15:12.780Z,100788.03
2022-10-18T23:17:48.166Z,100791.56
2022-10-18T23:20:22.706Z,100789.78
2022-10-18T23:22:55.648Z,100792.63
2022-10-18T23:25:32.672Z,100804.78
2022-10-18T23:28:09.006Z,100802.25
2022-10-18T23:30:46.286Z,100787.66
2022-10-18T23:33:19.440Z,100789.13
2022-10-18T23:35:57.356Z,100794.41
2022-10-18T23:38:35.761Z,100790.06
2022-10-18T23:41:19.664Z,100795.31
2022-10-18T23:43:52.663Z,100791.31
2022-10-18T23:46:28.103Z,100795.78
2022-10-18T23:48:59.856Z,100786.81
2022-10-18T23:51:30.010Z,100790.84
2022-10-18T23:53:59.760Z,100780.78
2022-10-18T23:56:31.535Z,100783.72
2022-10-18T23:59:00.814Z,100777.09
